sensor_id;sensor_type;location;lat;lon;timestamp;P1;durP1;ratioP1;P2;durP2;ratioP2
27889;SDS011;15238;49.082;9.102;2023-05-07T00:00:27;4.47;;;3.65;;
27889;SDS011;15238;49.082;9.102;2023-05-07T00:02:28;7.85;;;3.42;;
27889;SDS011;15238;49.082;9.102;2023-05-07T00:04:29;6.18;;;3.47;;
27889;SDS011;15238;49.082;9.102;2023-05-07T00:06:35;6.60;;;3.25;;
27889;SDS011;15238;49.082;9.102;2023-05-07T00:08:36;5.90;;;3.50;;
27889;SDS011;15238;49.082;9.102;2023-05-07T00:10:37;4.60;;;3.47;;
27889;SDS011;15238;49.082;9.102;2023-05-07T00:12:37;5.18;;;3.38;;
27889;SDS011;15238;49.082;9.102;2023-05-07T00:14:38;5.40;;;3.85;;
27889;SDS011;15238;49.082;9.102;2023-05-07T00:16:38;5.85;;;3.95;;
27889;SDS011;15238;49.082;9.102;2023-05-07T00:18:39;6.20;;;4.05;;
27889;SDS011;15238;49.082;9.102;2023-05-07T00:20:40;5.93;;;3.70;;
27889;SDS011;15238;49.082;9.102;2023-05-07T00:22:40;4.65;;;3.85;;
27889;SDS011;15238;49.082;9.102;2023-05-07T00:24:41;8.18;;;4.72;;
27889;SDS011;15238;49.082;9.102;2023-05-07T00:26:41;6.70;;;4.40;;
27889;SDS011;15238;49.082;9.102;2023-05-07T00:28:42;8.18;;;3.85;;
27889;SDS011;15238;49.082;9.102;2023-05-07T00:30:42;9.70;;;4.40;;
27889;SDS011;15238;49.082;9.102;2023-05-07T00:32:43;5.63;;;4.32;;
27889;SDS011;15238;49.082;9.102;2023-05-07T00:34:45;4.47;;;3.42;;
27889;SDS011;15238;49.082;9.102;2023-05-07T00:36:45;6.30;;;3.58;;
27889;SDS011;15238;49.082;9.102;2023-05-07T00:38:46;3.85;;;3.20;;
27889;SDS011;15238;49.082;9.102;2023-05-07T00:40:47;6.90;;;3.67;;
27889;SDS011;15238;49.082;9.102;2023-05-07T00:42:47;5.20;;;3.92;;
27889;SDS011;15238;49.082;9.102;2023-05-07T00:44:48;5.30;;;3.42;;
27889;SDS011;15238;49.082;9.102;2023-05-07T00:46:49;6.35;;;3.63;;
27889;SDS011;15238;49.082;9.102;2023-05-07T00:48:50;5.07;;;3.08;;
27889;SDS011;15238;49.082;9.102;2023-05-07T00:50:51;6.30;;;3.50;;
27889;SDS011;15238;49.082;9.102;2023-05-07T00:52:52;5.10;;;3.15;;
27889;SDS011;15238;49.082;9.102;2023-05-07T00:54:53;6.72;;;3.40;;
27889;SDS011;15238;49.082;9.102;2023-05-07T00:56:54;4.30;;;3.38;;
27889;SDS011;15238;49.082;9.102;2023-05-07T00:58:55;7.07;;;3.53;;
27889;SDS011;15238;49.082;9.102;2023-05-07T01:00:56;6.00;;;3.85;;
27889;SDS011;15238;49.082;9.102;2023-05-07T01:02:57;6.22;;;3.78;;
27889;SDS011;15238;49.082;9.102;2023-05-07T01:04:57;6.45;;;3.53;;
27889;SDS011;15238;49.082;9.102;2023-05-07T01:07:00;5.43;;;3.65;;
27889;SDS011;15238;49.082;9.102;2023-05-07T01:09:01;4.30;;;3.33;;
27889;SDS011;15238;49.082;9.102;2023-05-07T01:11:04;6.53;;;3.45;;
27889;SDS011;15238;49.082;9.102;2023-05-07T01:13:05;7.03;;;3.72;;
27889;SDS011;15238;49.082;9.102;2023-05-07T01:15:06;6.90;;;3.10;;
27889;SDS011;15238;49.082;9.102;2023-05-07T01:17:08;5.57;;;3.05;;
27889;SDS011;15238;49.082;9.102;2023-05-07T01:19:09;5.47;;;3.20;;
27889;SDS011;15238;49.082;9.102;2023-05-07T01:21:13;10.32;;;3.22;;
27889;SDS011;15238;49.082;9.102;2023-05-07T01:23:16;5.35;;;3.63;;
27889;SDS011;15238;49.082;9.102;2023-05-07T01:25:17;5.70;;;3.10;;
27889;SDS011;15238;49.082;9.102;2023-05-07T01:27:18;4.50;;;2.70;;
27889;SDS011;15238;49.082;9.102;2023-05-07T01:29:19;5.55;;;3.42;;
27889;SDS011;15238;49.082;9.102;2023-05-07T01:31:19;6.82;;;3.15;;
27889;SDS011;15238;49.082;9.102;2023-05-07T01:33:21;6.00;;;3.10;;
27889;SDS011;15238;49.082;9.102;2023-05-07T01:35:24;4.15;;;3.25;;
27889;SDS011;15238;49.082;9.102;2023-05-07T01:37:27;6.20;;;2.83;;
27889;SDS011;15238;49.082;9.102;2023-05-07T01:39:29;4.60;;;3.20;;
27889;SDS011;15238;49.082;9.102;2023-05-07T01:41:30;4.68;;;3.25;;
27889;SDS011;15238;49.082;9.102;2023-05-07T01:43:31;4.22;;;3.25;;
27889;SDS011;15238;49.082;9.102;2023-05-07T01:45:32;10.13;;;3.53;;
27889;SDS011;15238;49.082;9.102;2023-05-07T01:47:33;3.97;;;2.72;;
27889;SDS011;15238;49.082;9.102;2023-05-07T01:49:35;7.05;;;3.33;;
27889;SDS011;15238;49.082;9.102;2023-05-07T01:51:36;5.65;;;3.20;;
27889;SDS011;15238;49.082;9.102;2023-05-07T01:53:37;6.72;;;3.42;;
27889;SDS011;15238;49.082;9.102;2023-05-07T01:55:40;4.28;;;3.33;;
27889;SDS011;15238;49.082;9.102;2023-05-07T01:57:41;5.85;;;3.40;;
27889;SDS011;15238;49.082;9.102;2023-05-07T01:59:41;8.00;;;3.40;;
27889;SDS011;15238;49.082;9.102;2023-05-07T02:01:42;6.50;;;3.42;;
27889;SDS011;15238;49.082;9.102;2023-05-07T02:03:42;5.65;;;3.88;;
27889;SDS011;15238;49.082;9.102;2023-05-07T02:05:43;4.60;;;3.10;;
27889;SDS011;15238;49.082;9.102;2023-05-07T02:07:43;6.60;;;4.05;;
27889;SDS011;15238;49.082;9.102;2023-05-07T02:09:43;10.18;;;3.63;;
27889;SDS011;15238;49.082;9.102;2023-05-07T02:11:44;6.35;;;3.90;;
27889;SDS011;15238;49.082;9.102;2023-05-07T02:13:45;5.78;;;3.25;;
27889;SDS011;15238;49.082;9.102;2023-05-07T02:15:45;4.07;;;3.10;;
27889;SDS011;15238;49.082;9.102;2023-05-07T02:18:00;3.65;;;3.10;;
27889;SDS011;15238;49.082;9.102;2023-05-07T02:20:06;4.93;;;3.10;;
27889;SDS011;15238;49.082;9.102;2023-05-07T02:22:13;3.75;;;3.10;;
27889;SDS011;15238;49.082;9.102;2023-05-07T02:24:13;4.00;;;2.97;;
27889;SDS011;15238;49.082;9.102;2023-05-07T02:26:14;4.68;;;2.97;;
27889;SDS011;15238;49.082;9.102;2023-05-07T02:28:14;5.30;;;2.75;;
27889;SDS011;15238;49.082;9.102;2023-05-07T02:30:15;4.57;;;2.80;;
27889;SDS011;15238;49.082;9.102;2023-05-07T02:32:15;4.20;;;3.28;;
27889;SDS011;15238;49.082;9.102;2023-05-07T02:34:16;3.28;;;2.88;;
27889;SDS011;15238;49.082;9.102;2023-05-07T02:36:17;3.53;;;3.00;;
27889;SDS011;15238;49.082;9.102;2023-05-07T02:38:17;8.98;;;3.42;;
27889;SDS011;15238;49.082;9.102;2023-05-07T02:40:18;5.28;;;2.90;;
27889;SDS011;15238;49.082;9.102;2023-05-07T02:42:18;6.07;;;3.60;;
27889;SDS011;15238;49.082;9.102;2023-05-07T02:44:19;4.80;;;3.10;;
27889;SDS011;15238;49.082;9.102;2023-05-07T02:46:19;3.65;;;3.00;;
27889;SDS011;15238;49.082;9.102;2023-05-07T02:48:20;5.35;;;2.88;;
27889;SDS011;15238;49.082;9.102;2023-05-07T02:50:20;3.20;;;2.35;;
27889;SDS011;15238;49.082;9.102;2023-05-07T02:52:21;6.25;;;2.90;;
27889;SDS011;15238;49.082;9.102;2023-05-07T02:54:22;4.07;;;3.20;;
27889;SDS011;15238;49.082;9.102;2023-05-07T02:56:22;5.00;;;3.17;;
27889;SDS011;15238;49.082;9.102;2023-05-07T02:58:25;4.50;;;3.00;;
27889;SDS011;15238;49.082;9.102;2023-05-07T03:00:26;6.03;;;3.70;;
27889;SDS011;15238;49.082;9.102;2023-05-07T03:02:27;4.18;;;2.60;;
27889;SDS011;15238;49.082;9.102;2023-05-07T03:04:27;5.40;;;3.45;;
27889;SDS011;15238;49.082;9.102;2023-05-07T03:06:28;4.18;;;3.40;;
27889;SDS011;15238;49.082;9.102;2023-05-07T03:08:28;6.90;;;3.50;;
27889;SDS011;15238;49.082;9.102;2023-05-07T03:10:29;3.90;;;3.42;;
27889;SDS011;15238;49.082;9.102;2023-05-07T03:12:30;4.95;;;4.10;;
27889;SDS011;15238;49.082;9.102;2023-05-07T03:14:31;5.38;;;3.75;;
27889;SDS011;15238;49.082;9.102;2023-05-07T03:16:31;6.00;;;4.60;;
27889;SDS011;15238;49.082;9.102;2023-05-07T03:18:32;5.95;;;4.10;;
27889;SDS011;15238;49.082;9.102;2023-05-07T03:20:33;5.72;;;4.15;;
27889;SDS011;15238;49.082;9.102;2023-05-07T03:22:33;6.40;;;3.90;;
27889;SDS011;15238;49.082;9.102;2023-05-07T03:24:34;4.60;;;4.20;;
27889;SDS011;15238;49.082;9.102;2023-05-07T03:26:34;5.70;;;4.05;;
27889;SDS011;15238;49.082;9.102;2023-05-07T03:28:36;9.88;;;3.90;;
27889;SDS011;15238;49.082;9.102;2023-05-07T03:30:37;3.83;;;3.33;;
27889;SDS011;15238;49.082;9.102;2023-05-07T03:32:37;5.43;;;3.28;;
27889;SDS011;15238;49.082;9.102;2023-05-07T03:34:38;5.75;;;3.20;;
27889;SDS011;15238;49.082;9.102;2023-05-07T03:36:38;4.57;;;3.63;;
27889;SDS011;15238;49.082;9.102;2023-05-07T03:38:39;6.13;;;3.92;;
27889;SDS011;15238;49.082;9.102;2023-05-07T03:40:40;5.20;;;3.97;;
27889;SDS011;15238;49.082;9.102;2023-05-07T03:42:40;8.27;;;4.15;;
27889;SDS011;15238;49.082;9.102;2023-05-07T03:44:41;8.15;;;4.60;;
27889;SDS011;15238;49.082;9.102;2023-05-07T03:46:41;5.97;;;4.10;;
27889;SDS011;15238;49.082;9.102;2023-05-07T03:48:42;6.07;;;4.65;;
27889;SDS011;15238;49.082;9.102;2023-05-07T03:50:42;8.75;;;4.30;;
27889;SDS011;15238;49.082;9.102;2023-05-07T03:52:43;7.15;;;4.32;;
27889;SDS011;15238;49.082;9.102;2023-05-07T03:54:44;5.97;;;4.80;;
27889;SDS011;15238;49.082;9.102;2023-05-07T03:56:44;6.93;;;4.70;;
27889;SDS011;15238;49.082;9.102;2023-05-07T03:58:45;6.53;;;4.10;;
27889;SDS011;15238;49.082;9.102;2023-05-07T04:00:46;8.05;;;4.32;;
27889;SDS011;15238;49.082;9.102;2023-05-07T04:02:46;6.30;;;4.45;;
27889;SDS011;15238;49.082;9.102;2023-05-07T04:04:48;5.95;;;4.32;;
27889;SDS011;15238;49.082;9.102;2023-05-07T04:06:49;9.43;;;4.70;;
27889;SDS011;15238;49.082;9.102;2023-05-07T04:08:49;5.80;;;4.57;;
27889;SDS011;15238;49.082;9.102;2023-05-07T04:10:54;4.93;;;4.25;;
27889;SDS011;15238;49.082;9.102;2023-05-07T04:12:55;10.88;;;4.07;;
27889;SDS011;15238;49.082;9.102;2023-05-07T04:14:56;4.68;;;3.85;;
27889;SDS011;15238;49.082;9.102;2023-05-07T04:16:58;7.65;;;3.75;;
27889;SDS011;15238;49.082;9.102;2023-05-07T04:18:59;5.32;;;3.97;;
27889;SDS011;15238;49.082;9.102;2023-05-07T04:20:59;5.32;;;3.35;;
27889;SDS011;15238;49.082;9.102;2023-05-07T04:23:00;5.43;;;4.10;;
27889;SDS011;15238;49.082;9.102;2023-05-07T04:25:00;5.50;;;4.15;;
27889;SDS011;15238;49.082;9.102;2023-05-07T04:27:01;6.95;;;3.45;;
27889;SDS011;15238;49.082;9.102;2023-05-07T04:29:01;3.60;;;3.30;;
27889;SDS011;15238;49.082;9.102;2023-05-07T04:31:02;6.47;;;3.38;;
27889;SDS011;15238;49.082;9.102;2023-05-07T04:33:03;5.63;;;3.15;;
27889;SDS011;15238;49.082;9.102;2023-05-07T04:35:03;5.85;;;3.90;;
27889;SDS011;15238;49.082;9.102;2023-05-07T04:37:04;3.80;;;3.25;;
27889;SDS011;15238;49.082;9.102;2023-05-07T04:39:05;14.25;;;4.03;;
27889;SDS011;15238;49.082;9.102;2023-05-07T04:41:06;4.03;;;3.22;;
27889;SDS011;15238;49.082;9.102;2023-05-07T04:43:06;6.05;;;3.50;;
27889;SDS011;15238;49.082;9.102;2023-05-07T04:45:09;4.53;;;3.50;;
27889;SDS011;15238;49.082;9.102;2023-05-07T04:47:10;5.00;;;3.42;;
27889;SDS011;15238;49.082;9.102;2023-05-07T04:49:11;5.57;;;3.42;;
27889;SDS011;15238;49.082;9.102;2023-05-07T04:51:11;6.28;;;3.60;;
27889;SDS011;15238;49.082;9.102;2023-05-07T04:53:12;4.80;;;3.40;;
27889;SDS011;15238;49.082;9.102;2023-05-07T04:55:12;6.15;;;3.83;;
27889;SDS011;15238;49.082;9.102;2023-05-07T04:57:14;3.45;;;3.05;;
27889;SDS011;15238;49.082;9.102;2023-05-07T04:59:15;3.95;;;3.30;;
27889;SDS011;15238;49.082;9.102;2023-05-07T05:01:15;7.03;;;3.50;;
27889;SDS011;15238;49.082;9.102;2023-05-07T05:03:16;4.53;;;3.28;;
27889;SDS011;15238;49.082;9.102;2023-05-07T05:05:16;7.03;;;3.42;;
27889;SDS011;15238;49.082;9.102;2023-05-07T05:07:17;4.15;;;3.42;;
27889;SDS011;15238;49.082;9.102;2023-05-07T05:09:17;4.90;;;3.45;;
27889;SDS011;15238;49.082;9.102;2023-05-07T05:11:18;4.80;;;3.40;;
27889;SDS011;15238;49.082;9.102;2023-05-07T05:13:18;9.13;;;3.40;;
27889;SDS011;15238;49.082;9.102;2023-05-07T05:15:19;4.80;;;2.80;;
27889;SDS011;15238;49.082;9.102;2023-05-07T05:17:20;5.85;;;3.20;;
27889;SDS011;15238;49.082;9.102;2023-05-07T05:19:20;4.43;;;3.00;;
27889;SDS011;15238;49.082;9.102;2023-05-07T05:21:21;5.22;;;3.28;;
27889;SDS011;15238;49.082;9.102;2023-05-07T05:23:21;8.23;;;3.45;;
27889;SDS011;15238;49.082;9.102;2023-05-07T05:25:22;3.80;;;3.17;;
27889;SDS011;15238;49.082;9.102;2023-05-07T05:27:22;4.68;;;3.20;;
27889;SDS011;15238;49.082;9.102;2023-05-07T05:29:23;4.07;;;3.13;;
27889;SDS011;15238;49.082;9.102;2023-05-07T05:31:23;4.15;;;3.00;;
27889;SDS011;15238;49.082;9.102;2023-05-07T05:33:24;6.93;;;2.95;;
27889;SDS011;15238;49.082;9.102;2023-05-07T05:35:24;3.88;;;3.00;;
27889;SDS011;15238;49.082;9.102;2023-05-07T05:37:25;3.95;;;2.72;;
27889;SDS011;15238;49.082;9.102;2023-05-07T05:39:25;4.85;;;2.92;;
27889;SDS011;15238;49.082;9.102;2023-05-07T05:41:26;6.18;;;3.00;;
27889;SDS011;15238;49.082;9.102;2023-05-07T05:43:26;3.47;;;3.10;;
27889;SDS011;15238;49.082;9.102;2023-05-07T05:45:27;4.78;;;3.10;;
27889;SDS011;15238;49.082;9.102;2023-05-07T05:47:27;5.68;;;3.13;;
27889;SDS011;15238;49.082;9.102;2023-05-07T05:49:29;3.53;;;2.42;;
27889;SDS011;15238;49.082;9.102;2023-05-07T05:51:29;6.32;;;3.30;;
27889;SDS011;15238;49.082;9.102;2023-05-07T05:53:30;3.38;;;2.83;;
27889;SDS011;15238;49.082;9.102;2023-05-07T05:55:31;3.78;;;2.75;;
27889;SDS011;15238;49.082;9.102;2023-05-07T05:57:32;3.95;;;2.85;;
27889;SDS011;15238;49.082;9.102;2023-05-07T05:59:32;4.15;;;2.67;;
27889;SDS011;15238;49.082;9.102;2023-05-07T06:01:33;4.00;;;2.75;;
27889;SDS011;15238;49.082;9.102;2023-05-07T06:03:34;4.10;;;2.85;;
27889;SDS011;15238;49.082;9.102;2023-05-07T06:05:34;5.03;;;3.13;;
27889;SDS011;15238;49.082;9.102;2023-05-07T06:07:35;5.78;;;3.03;;
27889;SDS011;15238;49.082;9.102;2023-05-07T06:09:35;2.33;;;2.13;;
27889;SDS011;15238;49.082;9.102;2023-05-07T06:11:36;3.83;;;2.22;;
27889;SDS011;15238;49.082;9.102;2023-05-07T06:13:36;4.93;;;2.47;;
27889;SDS011;15238;49.082;9.102;2023-05-07T06:15:37;5.18;;;2.92;;
27889;SDS011;15238;49.082;9.102;2023-05-07T06:17:37;3.30;;;2.50;;
27889;SDS011;15238;49.082;9.102;2023-05-07T06:19:38;6.10;;;2.38;;
27889;SDS011;15238;49.082;9.102;2023-05-07T06:21:39;3.25;;;2.47;;
27889;SDS011;15238;49.082;9.102;2023-05-07T06:23:40;4.05;;;2.70;;
27889;SDS011;15238;49.082;9.102;2023-05-07T06:25:40;3.92;;;2.15;;
27889;SDS011;15238;49.082;9.102;2023-05-07T06:27:41;4.78;;;2.45;;
27889;SDS011;15238;49.082;9.102;2023-05-07T06:29:41;4.82;;;2.47;;
27889;SDS011;15238;49.082;9.102;2023-05-07T06:31:42;5.95;;;2.85;;
27889;SDS011;15238;49.082;9.102;2023-05-07T06:33:43;6.57;;;2.72;;
27889;SDS011;15238;49.082;9.102;2023-05-07T06:35:44;4.30;;;2.60;;
27889;SDS011;15238;49.082;9.102;2023-05-07T06:37:45;4.00;;;2.60;;
27889;SDS011;15238;49.082;9.102;2023-05-07T06:39:45;4.47;;;2.55;;
27889;SDS011;15238;49.082;9.102;2023-05-07T06:41:46;3.50;;;2.28;;
27889;SDS011;15238;49.082;9.102;2023-05-07T06:43:46;4.32;;;2.30;;
27889;SDS011;15238;49.082;9.102;2023-05-07T06:45:47;3.75;;;2.67;;
27889;SDS011;15238;49.082;9.102;2023-05-07T06:47:47;4.65;;;2.35;;
27889;SDS011;15238;49.082;9.102;2023-05-07T06:49:48;3.35;;;2.30;;
27889;SDS011;15238;49.082;9.102;2023-05-07T06:51:48;5.70;;;2.50;;
27889;SDS011;15238;49.082;9.102;2023-05-07T06:53:49;4.22;;;2.45;;
27889;SDS011;15238;49.082;9.102;2023-05-07T06:55:49;3.90;;;2.10;;
27889;SDS011;15238;49.082;9.102;2023-05-07T06:57:50;6.50;;;2.40;;
27889;SDS011;15238;49.082;9.102;2023-05-07T06:59:52;6.50;;;2.42;;
27889;SDS011;15238;49.082;9.102;2023-05-07T07:01:52;3.80;;;2.20;;
27889;SDS011;15238;49.082;9.102;2023-05-07T07:03:53;4.88;;;2.60;;
27889;SDS011;15238;49.082;9.102;2023-05-07T07:05:54;2.88;;;2.00;;
27889;SDS011;15238;49.082;9.102;2023-05-07T07:07:55;3.10;;;2.55;;
27889;SDS011;15238;49.082;9.102;2023-05-07T07:09:55;4.80;;;2.92;;
27889;SDS011;15238;49.082;9.102;2023-05-07T07:11:56;2.63;;;2.30;;
27889;SDS011;15238;49.082;9.102;2023-05-07T07:13:56;4.43;;;3.00;;
27889;SDS011;15238;49.082;9.102;2023-05-07T07:15:57;5.13;;;2.45;;
27889;SDS011;15238;49.082;9.102;2023-05-07T07:17:57;2.42;;;2.22;;
27889;SDS011;15238;49.082;9.102;2023-05-07T07:19:58;5.70;;;2.60;;
27889;SDS011;15238;49.082;9.102;2023-05-07T07:21:59;4.22;;;2.50;;
27889;SDS011;15238;49.082;9.102;2023-05-07T07:23:59;6.57;;;2.42;;
27889;SDS011;15238;49.082;9.102;2023-05-07T07:26:00;2.40;;;2.15;;
27889;SDS011;15238;49.082;9.102;2023-05-07T07:28:01;3.47;;;2.40;;
27889;SDS011;15238;49.082;9.102;2023-05-07T07:30:01;6.88;;;2.55;;
27889;SDS011;15238;49.082;9.102;2023-05-07T07:32:02;4.80;;;2.65;;
27889;SDS011;15238;49.082;9.102;2023-05-07T07:34:03;4.72;;;2.17;;
27889;SDS011;15238;49.082;9.102;2023-05-07T07:36:04;4.35;;;2.10;;
27889;SDS011;15238;49.082;9.102;2023-05-07T07:38:05;4.90;;;2.88;;
27889;SDS011;15238;49.082;9.102;2023-05-07T07:40:06;6.07;;;2.40;;
27889;SDS011;15238;49.082;9.102;2023-05-07T07:42:07;4.18;;;1.98;;
27889;SDS011;15238;49.082;9.102;2023-05-07T07:44:08;3.42;;;2.38;;
27889;SDS011;15238;49.082;9.102;2023-05-07T07:46:08;3.92;;;2.40;;
27889;SDS011;15238;49.082;9.102;2023-05-07T07:48:09;2.90;;;2.22;;
27889;SDS011;15238;49.082;9.102;2023-05-07T07:50:09;3.35;;;2.30;;
27889;SDS011;15238;49.082;9.102;2023-05-07T07:52:10;2.47;;;2.20;;
27889;SDS011;15238;49.082;9.102;2023-05-07T07:54:11;4.13;;;2.00;;
27889;SDS011;15238;49.082;9.102;2023-05-07T07:56:11;6.70;;;2.50;;
27889;SDS011;15238;49.082;9.102;2023-05-07T07:58:12;2.47;;;2.22;;
27889;SDS011;15238;49.082;9.102;2023-05-07T08:00:12;1.92;;;1.73;;
27889;SDS011;15238;49.082;9.102;2023-05-07T08:02:13;4.22;;;2.17;;
27889;SDS011;15238;49.082;9.102;2023-05-07T08:04:14;3.65;;;1.80;;
27889;SDS011;15238;49.082;9.102;2023-05-07T08:06:14;2.28;;;1.90;;
27889;SDS011;15238;49.082;9.102;2023-05-07T08:08:15;3.70;;;2.55;;
27889;SDS011;15238;49.082;9.102;2023-05-07T08:10:15;2.67;;;2.13;;
27889;SDS011;15238;49.082;9.102;2023-05-07T08:12:21;6.25;;;2.05;;
27889;SDS011;15238;49.082;9.102;2023-05-07T08:14:21;6.00;;;2.10;;
27889;SDS011;15238;49.082;9.102;2023-05-07T08:16:22;5.72;;;1.90;;
27889;SDS011;15238;49.082;9.102;2023-05-07T08:18:22;4.03;;;1.90;;
27889;SDS011;15238;49.082;9.102;2023-05-07T08:20:24;2.75;;;1.98;;
27889;SDS011;15238;49.082;9.102;2023-05-07T08:22:25;4.65;;;2.10;;
27889;SDS011;15238;49.082;9.102;2023-05-07T08:24:25;3.42;;;2.08;;
27889;SDS011;15238;49.082;9.102;2023-05-07T08:26:26;5.53;;;2.50;;
27889;SDS011;15238;49.082;9.102;2023-05-07T08:28:26;2.67;;;1.77;;
27889;SDS011;15238;49.082;9.102;2023-05-07T08:30:27;3.28;;;1.90;;
27889;SDS011;15238;49.082;9.102;2023-05-07T08:32:27;4.68;;;2.60;;
27889;SDS011;15238;49.082;9.102;2023-05-07T08:34:28;3.65;;;2.13;;
27889;SDS011;15238;49.082;9.102;2023-05-07T08:36:28;2.47;;;2.08;;
27889;SDS011;15238;49.082;9.102;2023-05-07T08:38:29;4.63;;;2.22;;
27889;SDS011;15238;49.082;9.102;2023-05-07T08:40:29;7.18;;;2.50;;
27889;SDS011;15238;49.082;9.102;2023-05-07T08:42:38;5.45;;;2.08;;
27889;SDS011;15238;49.082;9.102;2023-05-07T08:44:41;5.25;;;2.15;;
27889;SDS011;15238;49.082;9.102;2023-05-07T08:46:46;6.10;;;2.40;;
27889;SDS011;15238;49.082;9.102;2023-05-07T08:48:49;2.78;;;1.98;;
27889;SDS011;15238;49.082;9.102;2023-05-07T08:50:50;3.10;;;2.13;;
27889;SDS011;15238;49.082;9.102;2023-05-07T08:52:51;2.10;;;1.80;;
27889;SDS011;15238;49.082;9.102;2023-05-07T08:54:52;4.07;;;2.70;;
27889;SDS011;15238;49.082;9.102;2023-05-07T08:56:52;4.35;;;1.90;;
27889;SDS011;15238;49.082;9.102;2023-05-07T08:58:53;2.10;;;1.90;;
27889;SDS011;15238;49.082;9.102;2023-05-07T09:00:58;6.18;;;2.30;;
27889;SDS011;15238;49.082;9.102;2023-05-07T09:03:03;2.15;;;1.83;;
27889;SDS011;15238;49.082;9.102;2023-05-07T09:05:03;2.67;;;1.83;;
27889;SDS011;15238;49.082;9.102;2023-05-07T09:07:04;2.85;;;1.98;;
27889;SDS011;15238;49.082;9.102;2023-05-07T09:09:05;5.38;;;2.03;;
27889;SDS011;15238;49.082;9.102;2023-05-07T09:11:06;4.03;;;2.03;;
27889;SDS011;15238;49.082;9.102;2023-05-07T09:13:06;2.30;;;2.03;;
27889;SDS011;15238;49.082;9.102;2023-05-07T09:15:07;2.63;;;1.85;;
27889;SDS011;15238;49.082;9.102;2023-05-07T09:17:08;3.63;;;2.25;;
27889;SDS011;15238;49.082;9.102;2023-05-07T09:19:08;5.03;;;2.60;;
27889;SDS011;15238;49.082;9.102;2023-05-07T09:21:09;3.60;;;2.10;;
27889;SDS011;15238;49.082;9.102;2023-05-07T09:23:11;2.33;;;1.85;;
27889;SDS011;15238;49.082;9.102;2023-05-07T09:25:12;3.80;;;2.17;;
27889;SDS011;15238;49.082;9.102;2023-05-07T09:27:12;2.45;;;1.92;;
27889;SDS011;15238;49.082;9.102;2023-05-07T09:29:13;2.80;;;1.70;;
27889;SDS011;15238;49.082;9.102;2023-05-07T09:31:16;2.80;;;2.20;;
27889;SDS011;15238;49.082;9.102;2023-05-07T09:33:17;2.20;;;1.70;;
27889;SDS011;15238;49.082;9.102;2023-05-07T09:35:18;2.72;;;2.30;;
27889;SDS011;15238;49.082;9.102;2023-05-07T09:37:18;3.50;;;1.95;;
27889;SDS011;15238;49.082;9.102;2023-05-07T09:39:19;3.90;;;2.22;;
27889;SDS011;15238;49.082;9.102;2023-05-07T09:41:20;3.72;;;2.50;;
27889;SDS011;15238;49.082;9.102;2023-05-07T09:43:21;4.55;;;1.92;;
27889;SDS011;15238;49.082;9.102;2023-05-07T09:45:22;3.78;;;2.20;;
27889;SDS011;15238;49.082;9.102;2023-05-07T09:47:24;2.08;;;1.50;;
27889;SDS011;15238;49.082;9.102;2023-05-07T09:49:34;2.42;;;2.22;;
27889;SDS011;15238;49.082;9.102;2023-05-07T09:51:43;3.15;;;2.20;;
27889;SDS011;15238;49.082;9.102;2023-05-07T09:53:47;2.25;;;2.03;;
27889;SDS011;15238;49.082;9.102;2023-05-07T09:55:50;3.13;;;2.03;;
27889;SDS011;15238;49.082;9.102;2023-05-07T09:57:52;2.47;;;2.00;;
27889;SDS011;15238;49.082;9.102;2023-05-07T09:59:53;2.40;;;2.20;;
27889;SDS011;15238;49.082;9.102;2023-05-07T10:01:56;2.60;;;2.20;;
27889;SDS011;15238;49.082;9.102;2023-05-07T10:03:59;3.80;;;2.40;;
27889;SDS011;15238;49.082;9.102;2023-05-07T10:06:01;3.72;;;2.60;;
27889;SDS011;15238;49.082;9.102;2023-05-07T10:08:04;3.95;;;2.28;;
27889;SDS011;15238;49.082;9.102;2023-05-07T10:10:06;2.60;;;1.98;;
27889;SDS011;15238;49.082;9.102;2023-05-07T10:12:07;3.80;;;2.00;;
27889;SDS011;15238;49.082;9.102;2023-05-07T10:14:08;4.60;;;2.08;;
27889;SDS011;15238;49.082;9.102;2023-05-07T10:16:10;2.97;;;2.10;;
27889;SDS011;15238;49.082;9.102;2023-05-07T10:18:10;3.20;;;2.30;;
27889;SDS011;15238;49.082;9.102;2023-05-07T10:20:13;3.67;;;1.95;;
27889;SDS011;15238;49.082;9.102;2023-05-07T10:22:13;4.03;;;2.40;;
27889;SDS011;15238;49.082;9.102;2023-05-07T10:24:26;2.17;;;1.98;;
27889;SDS011;15238;49.082;9.102;2023-05-07T10:26:31;5.18;;;2.28;;
27889;SDS011;15238;49.082;9.102;2023-05-07T10:28:35;3.33;;;2.53;;
27889;SDS011;15238;49.082;9.102;2023-05-07T10:33:09;5.50;;;2.25;;
27889;SDS011;15238;49.082;9.102;2023-05-07T10:35:16;3.00;;;2.08;;
27889;SDS011;15238;49.082;9.102;2023-05-07T10:37:20;3.22;;;2.28;;
27889;SDS011;15238;49.082;9.102;2023-05-07T10:39:22;3.03;;;2.10;;
27889;SDS011;15238;49.082;9.102;2023-05-07T10:41:23;3.20;;;1.70;;
27889;SDS011;15238;49.082;9.102;2023-05-07T10:43:23;1.98;;;1.60;;
27889;SDS011;15238;49.082;9.102;2023-05-07T10:45:24;3.03;;;1.70;;
27889;SDS011;15238;49.082;9.102;2023-05-07T10:47:26;4.55;;;1.80;;
27889;SDS011;15238;49.082;9.102;2023-05-07T10:49:26;2.55;;;1.65;;
27889;SDS011;15238;49.082;9.102;2023-05-07T10:51:27;4.50;;;2.10;;
27889;SDS011;15238;49.082;9.102;2023-05-07T10:53:29;3.45;;;2.28;;
27889;SDS011;15238;49.082;9.102;2023-05-07T10:55:29;4.22;;;2.20;;
27889;SDS011;15238;49.082;9.102;2023-05-07T10:57:34;5.28;;;1.60;;
27889;SDS011;15238;49.082;9.102;2023-05-07T10:59:38;2.70;;;2.20;;
27889;SDS011;15238;49.082;9.102;2023-05-07T11:01:52;3.70;;;2.03;;
27889;SDS011;15238;49.082;9.102;2023-05-07T11:04:13;3.88;;;2.20;;
27889;SDS011;15238;49.082;9.102;2023-05-07T11:08:25;4.97;;;1.70;;
27889;SDS011;15238;49.082;9.102;2023-05-07T11:14:55;4.35;;;2.00;;
27889;SDS011;15238;49.082;9.102;2023-05-07T11:17:03;6.97;;;1.98;;
27889;SDS011;15238;49.082;9.102;2023-05-07T11:19:04;3.30;;;1.20;;
27889;SDS011;15238;49.082;9.102;2023-05-07T11:21:04;1.58;;;1.48;;
27889;SDS011;15238;49.082;9.102;2023-05-07T11:23:06;1.40;;;1.30;;
27889;SDS011;15238;49.082;9.102;2023-05-07T11:25:06;2.33;;;1.48;;
27889;SDS011;15238;49.082;9.102;2023-05-07T11:27:07;3.70;;;1.17;;
27889;SDS011;15238;49.082;9.102;2023-05-07T11:29:15;4.25;;;1.45;;
27889;SDS011;15238;49.082;9.102;2023-05-07T11:31:20;2.72;;;1.52;;
27889;SDS011;15238;49.082;9.102;2023-05-07T11:33:25;2.38;;;1.75;;
27889;SDS011;15238;49.082;9.102;2023-05-07T11:35:26;2.08;;;1.60;;
27889;SDS011;15238;49.082;9.102;2023-05-07T11:37:27;3.58;;;1.65;;
27889;SDS011;15238;49.082;9.102;2023-05-07T11:39:30;2.35;;;1.38;;
27889;SDS011;15238;49.082;9.102;2023-05-07T11:41:33;2.83;;;1.45;;
27889;SDS011;15238;49.082;9.102;2023-05-07T11:43:35;2.17;;;1.30;;
27889;SDS011;15238;49.082;9.102;2023-05-07T11:45:36;2.92;;;1.63;;
27889;SDS011;15238;49.082;9.102;2023-05-07T11:47:37;5.13;;;1.60;;
27889;SDS011;15238;49.082;9.102;2023-05-07T11:49:37;4.28;;;1.60;;
27889;SDS011;15238;49.082;9.102;2023-05-07T11:51:38;2.92;;;1.42;;
27889;SDS011;15238;49.082;9.102;2023-05-07T11:53:40;5.13;;;1.65;;
27889;SDS011;15238;49.082;9.102;2023-05-07T11:55:41;2.88;;;1.20;;
27889;SDS011;15238;49.082;9.102;2023-05-07T11:57:42;3.83;;;1.42;;
27889;SDS011;15238;49.082;9.102;2023-05-07T11:59:42;3.00;;;1.63;;
27889;SDS011;15238;49.082;9.102;2023-05-07T12:01:48;2.17;;;1.38;;
27889;SDS011;15238;49.082;9.102;2023-05-07T12:03:48;3.55;;;1.20;;
27889;SDS011;15238;49.082;9.102;2023-05-07T12:05:49;1.77;;;1.20;;
27889;SDS011;15238;49.082;9.102;2023-05-07T12:07:55;1.25;;;1.00;;
27889;SDS011;15238;49.082;9.102;2023-05-07T12:09:56;2.15;;;1.30;;
27889;SDS011;15238;49.082;9.102;2023-05-07T12:11:57;2.15;;;1.02;;
27889;SDS011;15238;49.082;9.102;2023-05-07T12:14:03;2.85;;;1.30;;
27889;SDS011;15238;49.082;9.102;2023-05-07T12:16:04;3.75;;;1.20;;
27889;SDS011;15238;49.082;9.102;2023-05-07T12:18:06;3.65;;;0.88;;
27889;SDS011;15238;49.082;9.102;2023-05-07T12:20:07;4.13;;;1.00;;